Time;durP1;ratioP1;P1;durP2;ratioP2;P2;SDS_P1;SDS_P2;PMS_P1;PMS_P2;Temp;Humidity;BMP_temperature;BMP_pressure;BME280_temperature;BME280_humidity;BME280_pressure;Samples;Min_cycle;Max_cycle;Signal;HPM_P1;HPM_P2
2022/10/29 08:01:40;;;;;;;41.55;33.00;;;;;;;15.35;100.00;101687.59;5253483;27;1906088;-66
2022/10/29 08:04:12;;;;;;;29.90;25.65;;;;;;;15.40;100.00;101681.94;5319217;28;20471;-66
2022/10/29 08:06:43;;;;;;;22.25;14.02;;;;;;;15.43;100.00;101678.53;5311814;28;20379;-65
2022/10/29 08:09:15;;;;;;;18.73;13.02;;;;;;;15.50;100.00;101684.56;5300064;28;20063;-65
2022/10/29 08:11:47;;;;;;;19.63;13.38;;;;;;;15.52;100.00;101673.06;5295766;28;20028;-66
2022/10/29 08:14:19;;;;;;;23.23;12.90;;;;;;;15.58;100.00;101671.88;5279730;28;20033;-66
2022/10/29 08:16:53;;;;;;;16.73;12.52;;;;;;;15.64;100.00;101667.84;5278656;28;20076;-67
2022/10/29 08:19:24;;;;;;;17.95;12.90;;;;;;;15.70;100.00;101671.41;5290496;28;20025;-67
2022/10/29 08:21:56;;;;;;;14.70;12.75;;;;;;;15.72;100.00;101669.16;5280453;28;20031;-68
2022/10/29 08:24:27;;;;;;;19.48;11.85;;;;;;;15.76;100.00;101661.84;5279933;28;20115;-67
2022/10/29 08:26:58;;;;;;;18.73;11.90;;;;;;;15.78;100.00;101674.38;5279186;28;20543;-67
2022/10/29 08:29:30;;;;;;;18.83;12.52;;;;;;;15.82;100.00;101666.19;5279534;28;20139;-67
2022/10/29 08:32:01;;;;;;;14.65;11.38;;;;;;;15.82;100.00;101672.66;5287457;28;20029;-67
2022/10/29 08:34:32;;;;;;;17.30;11.27;;;;;;;15.88;100.00;101667.78;5298001;28;20033;-67
2022/10/29 08:37:04;;;;;;;109.25;98.65;;;;;;;15.95;100.00;101668.22;5282037;28;20032;-67
2022/10/29 08:39:41;;;;;;;17.92;14.93;;;;;;;16.02;100.00;101671.44;5282501;28;20085;-67
2022/10/29 08:42:18;;;;;;;17.80;11.15;;;;;;;16.08;100.00;101678.63;5286899;28;20032;-67
2022/10/29 08:44:59;;;;;;;14.13;11.32;;;;;;;16.13;100.00;101674.06;5279621;28;20025;-67
2022/10/29 08:47:44;;;;;;;15.65;9.73;;;;;;;16.18;100.00;101662.78;5281704;28;20029;-65
2022/10/29 08:50:32;;;;;;;19.23;9.87;;;;;;;16.25;100.00;101666.00;5277722;28;20025;-65
2022/10/29 08:53:21;;;;;;;15.20;10.68;;;;;;;16.30;100.00;101661.13;5277596;28;20044;-66
2022/10/29 08:55:53;;;;;;;13.55;9.93;;;;;;;16.35;100.00;101665.81;5278664;28;20036;-66
2022/10/29 08:58:51;;;;;;;13.68;10.13;;;;;;;16.39;100.00;101664.06;5277267;28;20028;-66
2022/10/29 09:01:23;;;;;;;13.30;9.20;;;;;;;16.41;100.00;101663.75;5278378;28;20128;-66
2022/10/29 09:03:54;;;;;;;14.02;9.75;;;;;;;16.44;100.00;101658.38;5290824;28;20104;-66
2022/10/29 09:06:32;;;;;;;15.82;8.93;;;;;;;16.52;100.00;101656.81;5298660;28;20042;-66
2022/10/29 09:09:22;;;;;;;12.85;8.45;;;;;;;16.58;100.00;101652.75;5299887;28;20058;-66
2022/10/29 09:12:06;;;;;;;12.25;8.98;;;;;;;16.65;100.00;101646.75;5289768;28;20028;-65
2022/10/29 09:14:52;;;;;;;12.05;8.30;;;;;;;16.74;100.00;101647.66;5270739;28;20035;-66
2022/10/29 09:17:47;;;;;;;14.02;9.82;;;;;;;16.74;100.00;101661.69;5264894;28;20104;-70
2022/10/29 09:20:35;;;;;;;15.27;9.40;;;;;;;16.81;100.00;101661.31;5270799;28;20028;-67
2022/10/29 09:23:20;;;;;;;13.30;9.15;;;;;;;16.84;100.00;101660.66;5285224;28;20021;-67
2022/10/29 09:26:02;;;;;;;11.80;8.20;;;;;;;16.91;100.00;101667.50;5282136;28;20021;-67
2022/10/29 09:28:42;;;;;;;12.00;7.22;;;;;;;16.94;100.00;101658.47;5273451;28;20020;-67
2022/10/29 09:31:26;;;;;;;15.35;8.38;;;;;;;17.00;100.00;101645.22;5284934;28;20036;-66
2022/10/29 09:34:04;;;;;;;11.93;7.70;;;;;;;17.05;100.00;101644.25;5266898;28;20028;-67
2022/10/29 09:36:36;;;;;;;10.98;7.57;;;;;;;17.07;100.00;101654.00;5264397;28;20029;-66
2022/10/29 09:39:25;;;;;;;21.40;16.90;;;;;;;17.10;100.00;101641.31;5264875;28;20037;-64
2022/10/29 09:41:59;;;;;;;16.23;9.38;;;;;;;17.10;99.72;101641.31;5275039;28;20054;-66
2022/10/29 09:44:41;;;;;;;17.38;11.70;;;;;;;17.13;99.86;101647.16;5276710;28;20028;-66
2022/10/29 09:47:20;;;;;;;11.88;7.35;;;;;;;17.17;99.91;101633.31;5276355;28;20487;-66
2022/10/29 09:50:18;;;;;;;24.88;21.55;;;;;;;17.27;98.59;101633.09;5278007;28;20043;-66
2022/10/29 09:52:49;;;;;;;10.82;7.53;;;;;;;17.35;97.57;101634.31;5266940;28;20091;-67
2022/10/29 09:55:43;;;;;;;12.93;6.75;;;;;;;17.43;96.98;101627.13;5263903;28;20028;-66
2022/10/29 09:58:27;;;;;;;10.68;6.28;;;;;;;17.52;96.55;101614.00;5273584;28;20428;-66
2022/10/29 10:00:59;;;;;;;13.02;7.45;;;;;;;17.63;95.78;101623.81;5260455;28;20041;-66
2022/10/29 10:03:40;;;;;;;13.70;6.63;;;;;;;17.77;94.46;101618.97;5262788;28;20365;-66
2022/10/29 10:06:15;;;;;;;13.05;6.75;;;;;;;17.92;92.56;101620.59;5283711;28;20025;-67
2022/10/29 10:09:07;;;;;;;10.50;5.55;;;;;;;17.97;92.57;101614.00;5253198;28;20102;-67
2022/10/29 10:11:42;;;;;;;29.92;20.67;;;;;;;17.99;92.34;101606.09;5264243;28;20469;-67
2022/10/29 10:14:19;;;;;;;19.90;10.93;;;;;;;18.00;92.25;101616.19;5283634;28;20123;-67
2022/10/29 10:16:58;;;;;;;21.55;18.67;;;;;;;18.00;91.51;101607.75;5262472;28;20029;-66
2022/10/29 10:19:31;;;;;;;11.45;7.68;;;;;;;18.04;92.48;101614.38;5262234;28;20131;-66
2022/10/29 10:22:04;;;;;;;11.82;6.65;;;;;;;18.15;91.42;101612.09;5282082;28;20078;-66
2022/10/29 10:24:37;;;;;;;12.68;6.43;;;;;;;18.21;90.51;101614.47;5282156;28;20021;-68
2022/10/29 10:27:17;;;;;;;12.82;6.85;;;;;;;18.25;90.14;101609.00;5283770;28;20028;-65
2022/10/29 10:30:10;;;;;;;12.45;6.45;;;;;;;18.33;89.73;101611.06;5271210;28;20037;-66
2022/10/29 10:32:43;;;;;;;13.45;5.63;;;;;;;18.46;87.80;101603.69;5268679;28;20029;-67
2022/10/29 10:35:26;;;;;;;11.23;7.80;;;;;;;18.51;87.95;101600.72;5261691;28;20024;-67
2022/10/29 10:38:05;;;;;;;13.52;6.78;;;;;;;18.63;87.26;101608.50;5264622;28;20339;-66
2022/10/29 10:40:37;;;;;;;9.88;6.57;;;;;;;18.74;86.72;101592.16;5279246;28;20024;-67
2022/10/29 10:43:19;;;;;;;20.48;14.75;;;;;;;18.81;86.67;101596.19;5282831;28;20435;-67
2022/10/29 10:45:56;;;;;;;9.65;6.32;;;;;;;18.87;85.60;101592.06;5268765;28;20029;-66
2022/10/29 10:48:29;;;;;;;8.15;4.72;;;;;;;19.05;84.62;101592.94;5265071;28;20028;-67
2022/10/29 10:51:11;;;;;;;10.63;5.47;;;;;;;19.14;83.08;101586.47;5263676;28;20033;-66
2022/10/29 10:53:42;;;;;;;9.07;5.18;;;;;;;19.17;82.96;101583.00;5273534;28;20082;-65
2022/10/29 10:56:17;;;;;;;10.88;5.07;;;;;;;19.23;83.09;101573.25;5266157;28;20024;-66
2022/10/29 10:58:58;;;;;;;11.23;5.57;;;;;;;19.34;80.97;101578.19;5260075;28;20032;-67
2022/10/29 11:01:45;;;;;;;17.95;5.85;;;;;;;19.31;81.98;101569.59;5266525;28;20056;-66
2022/10/29 11:04:27;;;;;;;11.13;6.00;;;;;;;19.40;81.50;101576.03;5269843;28;20035;-66
2022/10/29 11:07:03;;;;;;;10.93;5.57;;;;;;;19.50;80.82;101578.50;5261037;28;20083;-67
2022/10/29 11:09:44;;;;;;;13.70;6.60;;;;;;;19.59;80.32;101577.69;5260230;28;20044;-67
2022/10/29 11:12:45;;;;;;;7.75;5.03;;;;;;;19.63;80.09;101573.84;5261424;28;20033;-67
2022/10/29 11:15:42;;;;;;;12.82;5.70;;;;;;;19.73;79.85;101576.34;5281365;28;20025;-66
2022/10/29 11:18:32;;;;;;;12.02;5.85;;;;;;;19.90;78.99;101577.50;5278624;28;20054;-66
2022/10/29 11:21:27;;;;;;;11.02;5.15;;;;;;;19.89;78.67;101571.03;5259814;28;20041;-66
2022/10/29 11:24:16;;;;;;;9.88;5.95;;;;;;;20.01;78.00;101567.50;5261202;28;20037;-67
2022/10/29 11:26:55;;;;;;;11.45;5.93;;;;;;;20.13;76.90;101573.25;5260065;28;20128;-66
2022/10/29 11:29:39;;;;;;;13.48;5.45;;;;;;;20.27;77.56;101575.03;5262616;28;20112;-65
2022/10/29 11:32:24;;;;;;;10.65;5.53;;;;;;;20.27;77.37;101573.03;5273645;28;20024;-65
2022/10/29 11:35:03;;;;;;;8.63;5.95;;;;;;;20.31;76.96;101567.56;5282709;28;20467;-66
2022/10/29 11:37:56;;;;;;;14.55;5.88;;;;;;;20.36;76.45;101559.75;5264192;28;20025;-66
2022/10/29 11:40:36;;;;;;;11.25;5.07;;;;;;;20.52;75.74;101561.97;5264528;28;20142;-65
2022/10/29 11:43:15;;;;;;;10.52;5.47;;;;;;;20.59;75.13;101554.66;5269649;28;20116;-68
2022/10/29 11:45:52;;;;;;;10.82;5.10;;;;;;;20.71;74.63;101550.28;5277050;28;20090;-66
2022/10/29 11:48:38;;;;;;;23.35;17.42;;;;;;;20.75;74.05;101545.63;5272265;28;20028;-67
2022/10/29 11:51:17;;;;;;;10.40;5.75;;;;;;;20.95;73.57;101538.34;5264987;28;20039;-67
2022/10/29 11:54:25;;;;;;;12.00;5.70;;;;;;;20.99;73.39;101553.44;5275892;28;20028;-66
2022/10/29 11:57:02;;;;;;;13.23;6.53;;;;;;;21.15;72.93;101537.53;5282906;28;20375;-66
2022/10/29 11:59:48;;;;;;;8.85;4.60;;;;;;;21.16;71.51;101536.34;5266085;28;20044;-65
2022/10/29 12:02:44;;;;;;;9.88;5.80;;;;;;;21.14;72.73;101541.53;5261197;28;20119;-65
2022/10/29 12:05:54;;;;;;;25.90;22.63;;;;;;;21.20;72.17;101534.50;5273800;28;20024;-67
2022/10/29 12:08:52;;;;;;;11.25;5.65;;;;;;;21.26;70.84;101526.63;5280171;28;20025;-66
2022/10/29 12:11:35;;;;;;;11.25;6.05;;;;;;;21.37;70.53;101527.88;5264976;28;20048;-66
2022/10/29 12:14:21;;;;;;;9.68;5.25;;;;;;;21.43;69.93;101531.31;5271960;28;20119;-66
2022/10/29 12:17:03;;;;;;;12.07;4.72;;;;;;;21.43;68.92;101525.69;5271600;28;20056;-68
2022/10/29 12:19:49;;;;;;;8.63;4.78;;;;;;;21.52;69.75;101517.94;5280958;28;20024;-68
2022/10/29 12:22:32;;;;;;;9.43;4.50;;;;;;;21.51;69.47;101521.94;5259979;28;20492;-66
2022/10/29 12:25:14;;;;;;;18.30;10.18;;;;;;;21.60;69.44;101513.38;5261432;28;20021;-67
2022/10/29 12:28:27;;;;;;;12.75;6.72;;;;;;;21.65;69.01;101504.69;5264028;28;20559;-67
2022/10/29 12:31:01;;;;;;;10.90;6.00;;;;;;;21.67;68.15;101503.16;5167959;28;20066;-66
2022/10/29 12:33:44;;;;;;;13.07;4.20;;;;;;;21.67;67.79;101493.88;5249755;28;20112;-68
2022/10/29 12:36:37;;;;;;;10.20;5.65;;;;;;;21.80;67.79;101497.53;5264401;28;20025;-65
2022/10/29 12:39:16;;;;;;;13.75;5.10;;;;;;;21.80;68.17;101487.06;5272512;28;20115;-66
2022/10/29 12:41:50;;;;;;;7.45;4.78;;;;;;;21.91;66.72;101485.44;5261605;28;20069;-66
2022/10/29 12:44:37;;;;;;;12.95;5.90;;;;;;;21.92;67.20;101480.63;5269918;28;20465;-67
2022/10/29 12:48:06;;;;;;;8.48;4.75;;;;;;;21.96;66.55;101481.56;5263132;28;20466;-66
2022/10/29 12:50:50;;;;;;;10.40;6.50;;;;;;;22.09;65.88;101476.75;5180570;28;20510;-67
2022/10/29 12:53:52;;;;;;;10.02;4.30;;;;;;;22.13;64.97;101475.66;5180907;28;20059;-65
2022/10/29 12:56:24;;;;;;;8.18;4.43;;;;;;;22.21;65.55;101478.75;5254771;28;20098;-67
2022/10/29 12:58:58;;;;;;;11.98;5.93;;;;;;;22.23;64.60;101474.41;5264430;28;20039;-66
2022/10/29 13:01:42;;;;;;;9.65;6.03;;;;;;;22.23;64.64;101473.59;5266662;28;20053;-66
2022/10/29 13:04:29;;;;;;;7.07;4.30;;;;;;;22.18;64.89;101466.13;5262540;28;20392;-65
2022/10/29 13:07:18;;;;;;;8.23;5.20;;;;;;;22.10;65.06;101461.44;5261289;28;20044;-66
2022/10/29 13:10:21;;;;;;;8.93;4.43;;;;;;;22.15;64.86;101462.03;5265652;28;20075;-65
2022/10/29 13:13:15;;;;;;;7.40;4.05;;;;;;;22.19;65.20;101461.31;5266921;28;20031;-67
2022/10/29 13:15:46;;;;;;;9.00;4.88;;;;;;;22.24;65.33;101455.44;5277237;28;20029;-66
2022/10/29 13:18:26;;;;;;;11.43;5.43;;;;;;;22.25;65.39;101448.63;5268407;28;20503;-67
2022/10/29 13:20:57;;;;;;;9.75;5.70;;;;;;;22.32;65.36;101443.22;5269268;28;20340;-69
2022/10/29 13:23:33;;;;;;;10.02;4.68;;;;;;;22.27;65.20;101449.13;5276621;28;20017;-68
2022/10/29 13:26:08;;;;;;;13.73;6.78;;;;;;;22.25;65.56;101445.81;5269660;28;20029;-67
2022/10/29 13:28:39;;;;;;;10.35;5.68;;;;;;;22.25;65.64;101440.97;5277068;28;20100;-66
2022/10/29 13:31:10;;;;;;;11.63;4.78;;;;;;;22.28;65.60;101445.09;5284401;28;20127;-65
2022/10/29 13:33:42;;;;;;;11.23;5.25;;;;;;;22.25;65.45;101445.81;5272787;28;20028;-65
2022/10/29 13:36:16;;;;;;;8.68;4.57;;;;;;;22.25;65.74;101443.00;5265324;28;20036;-65
2022/10/29 13:38:56;;;;;;;9.35;5.22;;;;;;;22.19;66.36;101433.06;5264421;28;20025;-64
2022/10/29 13:41:41;;;;;;;14.07;5.72;;;;;;;22.02;67.28;101434.97;5273212;28;20376;-65
2022/10/29 13:44:18;;;;;;;12.68;6.53;;;;;;;22.04;68.41;101438.28;5280747;28;20433;-65
2022/10/29 13:46:55;;;;;;;8.93;5.53;;;;;;;21.96;69.04;101441.19;5267070;28;20021;-64
2022/10/29 13:49:43;;;;;;;13.80;8.23;;;;;;;21.88;70.29;101440.13;5280492;28;20073;-65
2022/10/29 13:52:20;;;;;;;12.40;7.97;;;;;;;21.85;70.63;101436.00;5280891;28;20073;-67
2022/10/29 13:54:59;;;;;;;12.93;6.70;;;;;;;21.87;70.07;101432.84;5267107;28;20383;-66
2022/10/29 13:57:38;;;;;;;13.43;5.65;;;;;;;21.81;70.64;101429.44;5271679;28;20056;-66
2022/10/29 14:00:09;;;;;;;11.23;6.95;;;;;;;21.82;70.60;101430.25;5277550;28;20049;-66
2022/10/29 14:02:40;;;;;;;13.68;6.82;;;;;;;21.77;71.27;101427.66;5267603;28;20020;-68
2022/10/29 14:05:30;;;;;;;9.90;5.10;;;;;;;21.75;71.37;101430.00;5276439;28;20023;-67
2022/10/29 14:08:20;;;;;;;12.05;5.18;;;;;;;21.70;72.41;101420.63;5270831;28;20284;-67
2022/10/29 14:10:58;;;;;;;14.07;7.57;;;;;;;21.63;72.99;101420.38;5264728;28;20028;-65
2022/10/29 14:13:43;;;;;;;11.27;6.20;;;;;;;21.62;73.27;101421.53;5263120;28;20025;-66
2022/10/29 14:16:19;;;;;;;8.02;5.13;;;;;;;21.60;73.78;101423.91;5274724;28;20031;-66
2022/10/29 14:18:52;;;;;;;12.05;4.78;;;;;;;21.61;73.36;101424.72;5279516;28;20119;-67
2022/10/29 14:21:29;;;;;;;13.90;5.20;;;;;;;21.61;73.00;101419.91;5270903;28;20037;-67
2022/10/29 14:24:03;;;;;;;16.35;7.03;;;;;;;21.61;73.06;101431.19;5270246;28;20534;-67
2022/10/29 14:26:37;;;;;;;12.53;6.50;;;;;;;21.61;72.58;101433.19;5273255;28;20029;-67
2022/10/29 14:29:23;;;;;;;11.75;5.60;;;;;;;21.58;72.17;101429.06;5279942;28;20036;-69
2022/10/29 14:32:11;;;;;;;21.08;15.43;;;;;;;21.58;72.11;101425.44;5282508;28;20025;-69
2022/10/29 14:34:44;;;;;;;12.85;5.80;;;;;;;21.55;72.67;101432.59;5267089;28;20024;-69
2022/10/29 14:37:34;;;;;;;12.32;5.78;;;;;;;21.55;72.20;101435.41;5275375;28;20025;-68
2022/10/29 14:40:15;;;;;;;14.23;5.40;;;;;;;21.54;71.76;101436.56;5269798;28;20093;-68
2022/10/29 14:42:52;;;;;;;16.58;4.75;;;;;;;21.56;72.16;101431.41;5278120;28;20043;-69
2022/10/29 14:45:27;;;;;;;12.77;5.60;;;;;;;21.55;72.41;101426.97;5271650;28;20472;-68
2022/10/29 14:48:09;;;;;;;8.82;4.43;;;;;;;21.51;72.22;101425.19;5276132;28;20037;-68
2022/10/29 14:50:46;;;;;;;12.38;6.10;;;;;;;21.52;72.54;101432.47;5266205;28;20043;-68
2022/10/29 14:53:30;;;;;;;15.05;6.05;;;;;;;21.42;73.15;101428.94;5272394;28;20031;-68
2022/10/29 14:56:11;;;;;;;12.25;5.70;;;;;;;21.38;74.11;101418.66;5268556;28;20028;-67
2022/10/29 14:58:43;;;;;;;10.00;5.00;;;;;;;21.42;73.59;101416.81;5274047;28;20021;-68
2022/10/29 15:01:19;;;;;;;8.50;5.22;;;;;;;21.35;73.98;101417.34;5270062;28;20086;-68
2022/10/29 15:03:57;;;;;;;9.68;5.13;;;;;;;21.35;73.67;101416.53;5272625;28;20529;-68
2022/10/29 15:06:29;;;;;;;14.00;5.68;;;;;;;21.24;73.82;101405.72;5266419;28;20136;-68
2022/10/29 15:09:06;;;;;;;10.63;5.05;;;;;;;21.27;73.33;101409.81;5276608;28;20100;-69
2022/10/29 15:11:47;;;;;;;11.65;5.35;;;;;;;21.24;73.21;101411.34;5272509;28;20040;-68
2022/10/29 15:14:45;;;;;;;13.18;4.55;;;;;;;21.16;73.89;101415.06;5265733;28;20369;-69
2022/10/29 15:17:22;;;;;;;15.23;5.30;;;;;;;21.16;73.97;101400.97;5261875;28;20025;-67
2022/10/29 15:19:58;;;;;;;10.60;4.90;;;;;;;21.09;73.83;101402.69;5274716;28;20471;-70
2022/10/29 15:22:29;;;;;;;;;;;;;;;21.06;73.98;101404.22;5279526;28;20075;-70
2022/10/29 15:25:02;;;;;;;;;;;;;;;21.02;74.13;101401.28;5268440;28;19916;-68
2022/10/29 15:27:36;;;;;;;;;;;;;;;20.98;74.16;101391.84;5263047;28;19936;-71
2022/10/29 15:30:16;;;;;;;;;;;;;;;20.94;74.41;101387.25;5263025;28;20031;-72
2022/10/29 15:32:47;;;;;;;;;;;;;;;20.92;74.12;101386.81;5281251;28;20279;-71
2022/10/29 15:35:20;;;;;;;;;;;;;;;20.89;74.22;101393.97;5273482;28;19917;-71
2022/10/29 15:37:52;;;;;;;;;;;;;;;20.87;74.32;101384.22;5273164;28;19916;-71
2022/10/29 15:40:24;;;;;;;;;;;;;;;20.82;74.24;101376.78;5265708;28;19912;-67
2022/10/29 15:43:15;;;;;;;;;;;;;;;20.78;74.41;101371.00;5278696;28;19913;-69
2022/10/29 15:45:54;;;;;;;;;;;;;;;20.75;74.17;101365.25;5263654;28;19916;-68
2022/10/29 15:48:27;;;;;;;;;;;;;;;20.71;73.78;101358.63;5264699;28;19996;-68
2022/10/29 15:50:58;;;;;;;;;;;;;;;20.67;74.12;101358.50;5275166;28;19921;-69
2022/10/29 15:53:29;;;;;;;;;;;;;;;20.63;74.54;101349.94;5270645;28;19918;-68
2022/10/29 15:56:02;;;;;;;;;;;;;;;20.59;74.80;101357.44;5266678;28;20342;-68
2022/10/29 15:58:33;;;;;;;;;;;;;;;20.57;75.32;101350.50;5276512;28;20019;-67
2022/10/29 16:01:05;;;;;;;;;;;;;;;20.55;75.78;101355.63;5270093;28;20391;-68
2022/10/29 16:03:38;;;;;;;;;;;;;;;20.51;76.27;101351.84;5261971;28;20017;-67
2022/10/29 16:06:09;;;;;;;;;;;;;;;20.48;76.64;101355.34;5273301;28;20279;-67
2022/10/29 16:08:49;;;;;;;;;;;;;;;20.44;77.57;101351.56;5272556;28;19989;-67
2022/10/29 16:11:21;;;;;;;;;;;;;;;20.38;78.05;101351.78;5275754;28;19928;-68
2022/10/29 16:13:52;;;;;;;;;;;;;;;20.36;78.41;101354.13;5269300;28;19917;-68
2022/10/29 16:16:25;;;;;;;;;;;;;;;20.33;78.93;101343.53;5278475;28;19944;-67
2022/10/29 16:18:59;;;;;;;;;;;;;;;20.31;79.56;101345.88;5268926;28;20294;-71
2022/10/29 16:21:30;;;;;;;;;;;;;;;20.28;79.68;101340.94;5276389;28;19913;-69
2022/10/29 16:24:04;;;;;;;;;;;;;;;20.25;80.50;101341.63;5268299;28;19917;-69
2022/10/29 16:26:36;;;;;;;;;;;;;;;20.23;80.75;101341.16;5267194;28;19938;-69
2022/10/29 16:29:07;;;;;;;;;;;;;;;20.19;81.08;101342.97;5272333;28;20023;-69
2022/10/29 16:31:38;;;;;;;;;;;;;;;20.16;81.06;101341.69;5275398;28;19916;-69
2022/10/29 16:34:12;;;;;;;;;;;;;;;20.14;81.84;101340.38;5270348;28;19954;-68
2022/10/29 16:36:43;;;;;;;;;;;;;;;20.12;81.98;101337.91;5271567;28;20389;-70
2022/10/29 16:39:14;;;;;;;;;;;;;;;20.09;82.93;101340.56;5273606;28;19916;-68
2022/10/29 16:41:46;;;;;;;;;;;;;;;20.07;83.03;101337.28;5280123;28;19970;-69
2022/10/29 16:44:17;;;;;;;;;;;;;;;20.06;83.17;101335.63;5284730;28;20133;-70
2022/10/29 16:46:48;;;;;;;;;;;;;;;20.05;83.55;101334.00;5267151;28;19919;-69
2022/10/29 16:49:19;;;;;;;;;;;;;;;20.02;83.48;101332.69;5267510;28;19994;-68
2022/10/29 16:51:50;;;;;;;;;;;;;;;20.01;83.39;101335.84;5266643;28;20015;-69
2022/10/29 16:54:21;;;;;;;;;;;;;;;19.99;83.51;101330.53;5282144;28;19913;-69
2022/10/29 16:57:05;;;;;;;;;;;;;;;19.96;83.19;101332.06;5268153;28;19923;-69
2022/10/29 16:59:36;;;;;;;;;;;;;;;19.96;82.86;101329.22;5271927;28;19963;-69
2022/10/29 17:02:09;;;;;;;;;;;;;;;19.95;83.40;101321.97;5270441;28;19924;-69
2022/10/29 17:04:40;;;;;;;;;;;;;;;19.93;83.20;101318.66;5267144;28;19916;-69
2022/10/29 17:07:11;;;;;;;;;;;;;;;19.92;83.16;101313.41;5278465;28;19912;-69
2022/10/29 17:09:42;;;;;;;;;;;;;;;19.90;82.82;101310.09;5266210;28;19912;-69
2022/10/29 17:12:14;;;;;;;;;;;;;;;19.88;83.03;101303.97;5280849;28;19966;-70
2022/10/29 17:14:45;;;;;;;;;;;;;;;19.85;83.05;101304.66;5267581;28;19913;-68
2022/10/29 17:17:16;;;;;;;;;;;;;;;19.83;83.63;101305.00;5274095;28;19917;-69
2022/10/29 17:19:47;;;;;;;;;;;;;;;19.79;83.66;101306.84;5270656;28;20032;-70
2022/10/29 17:22:18;;;;;;;;;;;;;;;19.76;83.40;101294.28;5268880;28;19913;-70
2022/10/29 17:24:50;;;;;;;;;;;;;;;19.74;83.52;101302.25;5271280;28;20363;-69
2022/10/29 17:27:21;;;;;;;;;;;;;;;19.72;83.54;101292.50;5277413;28;19912;-68
2022/10/29 17:29:52;;;;;;;;;;;;;;;19.70;83.78;101300.44;5264823;28;19992;-70
2022/10/29 17:32:23;;;;;;;;;;;;;;;19.68;83.57;101305.59;5277356;28;19928;-69
